sensor_id;sensor_type;location;lat;lon;timestamp;temperature;humidity
4010;DHT22;2019;48.200;11.548;2022-07-29T00:01:19;23.70;58.00
4010;DHT22;2019;48.200;11.548;2022-07-29T00:03:45;23.70;58.20
4010;DHT22;2019;48.200;11.548;2022-07-29T00:06:11;23.70;58.30
4010;DHT22;2019;48.200;11.548;2022-07-29T00:08:37;23.70;58.40
4010;DHT22;2019;48.200;11.548;2022-07-29T00:11:02;23.60;58.40
4010;DHT22;2019;48.200;11.548;2022-07-29T00:13:28;23.60;58.60
4010;DHT22;2019;48.200;11.548;2022-07-29T00:15:54;23.60;58.70
4010;DHT22;2019;48.200;11.548;2022-07-29T00:18:20;23.60;58.90
4010;DHT22;2019;48.200;11.548;2022-07-29T00:20:45;23.50;58.90
4010;DHT22;2019;48.200;11.548;2022-07-29T00:23:11;23.50;59.10
4010;DHT22;2019;48.200;11.548;2022-07-29T00:25:36;23.50;59.20
4010;DHT22;2019;48.200;11.548;2022-07-29T00:28:02;23.50;59.30
4010;DHT22;2019;48.200;11.548;2022-07-29T00:30:28;23.50;59.40
4010;DHT22;2019;48.200;11.548;2022-07-29T00:32:53;23.50;59.50
4010;DHT22;2019;48.200;11.548;2022-07-29T00:35:19;23.50;59.70
4010;DHT22;2019;48.200;11.548;2022-07-29T00:38:03;23.40;59.80
4010;DHT22;2019;48.200;11.548;2022-07-29T00:40:29;23.40;60.00
4010;DHT22;2019;48.200;11.548;2022-07-29T00:42:54;23.40;60.50
4010;DHT22;2019;48.200;11.548;2022-07-29T00:45:20;23.40;60.80
4010;DHT22;2019;48.200;11.548;2022-07-29T00:47:47;23.30;61.00
4010;DHT22;2019;48.200;11.548;2022-07-29T00:50:14;23.30;61.30
4010;DHT22;2019;48.200;11.548;2022-07-29T00:52:41;23.30;61.60
4010;DHT22;2019;48.200;11.548;2022-07-29T00:55:09;23.30;61.70
4010;DHT22;2019;48.200;11.548;2022-07-29T00:57:36;23.30;61.90
4010;DHT22;2019;48.200;11.548;2022-07-29T01:00:06;23.20;61.80
4010;DHT22;2019;48.200;11.548;2022-07-29T01:02:33;23.20;62.00
4010;DHT22;2019;48.200;11.548;2022-07-29T01:04:59;23.20;62.10
4010;DHT22;2019;48.200;11.548;2022-07-29T01:07:26;23.20;62.10
4010;DHT22;2019;48.200;11.548;2022-07-29T01:09:53;23.20;62.20
4010;DHT22;2019;48.200;11.548;2022-07-29T01:12:24;23.20;62.30
4010;DHT22;2019;48.200;11.548;2022-07-29T01:14:50;23.20;62.40
4010;DHT22;2019;48.200;11.548;2022-07-29T01:31:22;23.30;62.50
4010;DHT22;2019;48.200;11.548;2022-07-29T01:33:55;23.30;62.70
4010;DHT22;2019;48.200;11.548;2022-07-29T01:36:43;23.30;62.70
4010;DHT22;2019;48.200;11.548;2022-07-29T01:42:23;23.40;63.30
4010;DHT22;2019;48.200;11.548;2022-07-29T01:44:40;23.40;63.80
4010;DHT22;2019;48.200;11.548;2022-07-29T01:47:13;23.40;64.00
4010;DHT22;2019;48.200;11.548;2022-07-29T01:49:45;23.40;64.30
4010;DHT22;2019;48.200;11.548;2022-07-29T01:52:46;23.40;64.30
4010;DHT22;2019;48.200;11.548;2022-07-29T01:55:14;23.40;64.40
4010;DHT22;2019;48.200;11.548;2022-07-29T01:57:45;23.40;64.30
4010;DHT22;2019;48.200;11.548;2022-07-29T02:00:13;23.40;64.40
4010;DHT22;2019;48.200;11.548;2022-07-29T02:02:42;23.40;64.40
4010;DHT22;2019;48.200;11.548;2022-07-29T02:05:11;23.40;64.60
4010;DHT22;2019;48.200;11.548;2022-07-29T02:07:38;23.40;64.60
4010;DHT22;2019;48.200;11.548;2022-07-29T02:10:07;23.40;64.70
4010;DHT22;2019;48.200;11.548;2022-07-29T02:12:35;23.40;64.80
4010;DHT22;2019;48.200;11.548;2022-07-29T02:15:03;23.30;64.70
4010;DHT22;2019;48.200;11.548;2022-07-29T02:17:33;23.30;64.90
4010;DHT22;2019;48.200;11.548;2022-07-29T02:20:02;23.40;65.00
4010;DHT22;2019;48.200;11.548;2022-07-29T02:22:30;23.30;65.20
4010;DHT22;2019;48.200;11.548;2022-07-29T02:24:58;23.30;65.20
4010;DHT22;2019;48.200;11.548;2022-07-29T02:27:26;23.30;65.20
4010;DHT22;2019;48.200;11.548;2022-07-29T02:29:53;23.30;65.40
4010;DHT22;2019;48.200;11.548;2022-07-29T02:32:21;23.30;65.50
4010;DHT22;2019;48.200;11.548;2022-07-29T02:34:49;23.30;65.60
4010;DHT22;2019;48.200;11.548;2022-07-29T02:37:16;23.30;65.70
4010;DHT22;2019;48.200;11.548;2022-07-29T02:39:43;23.30;65.80
4010;DHT22;2019;48.200;11.548;2022-07-29T02:42:13;23.30;65.80
4010;DHT22;2019;48.200;11.548;2022-07-29T02:44:40;23.30;65.80
4010;DHT22;2019;48.200;11.548;2022-07-29T02:47:27;23.20;65.70
4010;DHT22;2019;48.200;11.548;2022-07-29T02:50:34;23.30;65.90
4010;DHT22;2019;48.200;11.548;2022-07-29T02:53:07;23.20;65.80
4010;DHT22;2019;48.200;11.548;2022-07-29T02:56:10;23.20;65.70
4010;DHT22;2019;48.200;11.548;2022-07-29T02:58:32;23.20;65.80
4010;DHT22;2019;48.200;11.548;2022-07-29T03:01:03;23.20;65.80
4010;DHT22;2019;48.200;11.548;2022-07-29T03:03:37;23.20;65.70
4010;DHT22;2019;48.200;11.548;2022-07-29T03:06:04;23.20;65.80
4010;DHT22;2019;48.200;11.548;2022-07-29T03:08:31;23.10;65.60
4010;DHT22;2019;48.200;11.548;2022-07-29T03:10:57;23.10;65.70
4010;DHT22;2019;48.200;11.548;2022-07-29T03:13:23;23.10;65.60
4010;DHT22;2019;48.200;11.548;2022-07-29T03:15:50;23.10;65.70
4010;DHT22;2019;48.200;11.548;2022-07-29T03:18:16;23.00;65.70
4010;DHT22;2019;48.200;11.548;2022-07-29T03:20:42;23.00;65.80
4010;DHT22;2019;48.200;11.548;2022-07-29T03:23:10;23.00;65.80
4010;DHT22;2019;48.200;11.548;2022-07-29T03:25:36;23.00;65.90
4010;DHT22;2019;48.200;11.548;2022-07-29T03:28:02;23.00;65.90
4010;DHT22;2019;48.200;11.548;2022-07-29T03:30:27;22.90;65.90
4010;DHT22;2019;48.200;11.548;2022-07-29T03:32:55;22.90;66.00
4010;DHT22;2019;48.200;11.548;2022-07-29T03:35:21;22.90;66.00
4010;DHT22;2019;48.200;11.548;2022-07-29T03:37:48;22.90;66.10
4010;DHT22;2019;48.200;11.548;2022-07-29T03:40:18;22.80;66.20
4010;DHT22;2019;48.200;11.548;2022-07-29T03:42:45;22.80;66.40
4010;DHT22;2019;48.200;11.548;2022-07-29T03:45:15;22.80;66.40
4010;DHT22;2019;48.200;11.548;2022-07-29T03:47:46;22.80;66.50
4010;DHT22;2019;48.200;11.548;2022-07-29T03:50:14;22.80;66.70
4010;DHT22;2019;48.200;11.548;2022-07-29T03:52:40;22.70;66.60
4010;DHT22;2019;48.200;11.548;2022-07-29T03:55:07;22.70;66.60
4010;DHT22;2019;48.200;11.548;2022-07-29T03:57:35;22.70;66.60
4010;DHT22;2019;48.200;11.548;2022-07-29T04:00:02;22.70;66.80
4010;DHT22;2019;48.200;11.548;2022-07-29T04:02:29;22.70;66.80
4010;DHT22;2019;48.200;11.548;2022-07-29T04:04:56;22.70;67.60
4010;DHT22;2019;48.200;11.548;2022-07-29T04:07:21;22.60;66.90
4010;DHT22;2019;48.200;11.548;2022-07-29T04:09:47;22.60;67.00
4010;DHT22;2019;48.200;11.548;2022-07-29T04:12:12;22.60;67.00
4010;DHT22;2019;48.200;11.548;2022-07-29T04:14:38;22.60;67.00
4010;DHT22;2019;48.200;11.548;2022-07-29T04:17:04;22.60;67.10
4010;DHT22;2019;48.200;11.548;2022-07-29T04:19:31;22.60;67.20
4010;DHT22;2019;48.200;11.548;2022-07-29T04:21:58;22.60;67.30
4010;DHT22;2019;48.200;11.548;2022-07-29T04:24:24;22.60;67.30
4010;DHT22;2019;48.200;11.548;2022-07-29T04:26:50;22.60;67.40
4010;DHT22;2019;48.200;11.548;2022-07-29T04:29:15;22.60;67.50
4010;DHT22;2019;48.200;11.548;2022-07-29T04:31:42;22.60;67.60
4010;DHT22;2019;48.200;11.548;2022-07-29T04:34:09;22.60;67.60
4010;DHT22;2019;48.200;11.548;2022-07-29T04:36:35;22.60;67.70
4010;DHT22;2019;48.200;11.548;2022-07-29T04:39:01;22.60;67.80
4010;DHT22;2019;48.200;11.548;2022-07-29T04:41:27;22.70;68.00
4010;DHT22;2019;48.200;11.548;2022-07-29T04:43:53;22.70;68.10
4010;DHT22;2019;48.200;11.548;2022-07-29T04:46:19;22.70;68.10
4010;DHT22;2019;48.200;11.548;2022-07-29T04:48:47;22.70;68.10
4010;DHT22;2019;48.200;11.548;2022-07-29T04:51:16;22.80;68.30
4010;DHT22;2019;48.200;11.548;2022-07-29T04:53:41;22.80;68.40
4010;DHT22;2019;48.200;11.548;2022-07-29T04:56:07;22.80;68.50
4010;DHT22;2019;48.200;11.548;2022-07-29T04:58:37;22.90;68.60
4010;DHT22;2019;48.200;11.548;2022-07-29T05:01:03;22.90;68.50
4010;DHT22;2019;48.200;11.548;2022-07-29T05:03:29;22.90;68.40
4010;DHT22;2019;48.200;11.548;2022-07-29T05:05:54;22.90;68.40
4010;DHT22;2019;48.200;11.548;2022-07-29T05:08:20;23.00;68.30
4010;DHT22;2019;48.200;11.548;2022-07-29T05:10:46;23.00;68.30
4010;DHT22;2019;48.200;11.548;2022-07-29T05:13:12;23.00;68.20
4010;DHT22;2019;48.200;11.548;2022-07-29T05:15:37;23.00;68.10
4010;DHT22;2019;48.200;11.548;2022-07-29T05:18:04;23.00;68.10
4010;DHT22;2019;48.200;11.548;2022-07-29T05:20:30;23.00;68.10
4010;DHT22;2019;48.200;11.548;2022-07-29T05:22:57;23.00;68.10
4010;DHT22;2019;48.200;11.548;2022-07-29T05:25:24;23.00;68.20
4010;DHT22;2019;48.200;11.548;2022-07-29T05:27:50;23.10;68.40
4010;DHT22;2019;48.200;11.548;2022-07-29T05:30:16;23.10;68.50
4010;DHT22;2019;48.200;11.548;2022-07-29T05:32:41;23.10;68.30
4010;DHT22;2019;48.200;11.548;2022-07-29T05:35:07;23.20;68.40
4010;DHT22;2019;48.200;11.548;2022-07-29T05:37:33;23.10;68.20
4010;DHT22;2019;48.200;11.548;2022-07-29T05:39:59;23.20;68.30
4010;DHT22;2019;48.200;11.548;2022-07-29T05:42:25;23.20;68.20
4010;DHT22;2019;48.200;11.548;2022-07-29T05:44:51;23.20;68.10
4010;DHT22;2019;48.200;11.548;2022-07-29T05:47:16;23.30;67.90
4010;DHT22;2019;48.200;11.548;2022-07-29T05:49:42;23.20;67.60
4010;DHT22;2019;48.200;11.548;2022-07-29T05:52:08;23.30;67.40
4010;DHT22;2019;48.200;11.548;2022-07-29T05:54:34;23.30;67.00
4010;DHT22;2019;48.200;11.548;2022-07-29T05:57:00;23.30;66.70
4010;DHT22;2019;48.200;11.548;2022-07-29T05:59:26;23.30;66.50
4010;DHT22;2019;48.200;11.548;2022-07-29T06:01:51;23.30;66.30
4010;DHT22;2019;48.200;11.548;2022-07-29T06:04:17;23.40;66.10
4010;DHT22;2019;48.200;11.548;2022-07-29T06:06:43;23.40;66.10
4010;DHT22;2019;48.200;11.548;2022-07-29T06:09:08;23.40;66.10
4010;DHT22;2019;48.200;11.548;2022-07-29T06:11:34;23.40;65.90
4010;DHT22;2019;48.200;11.548;2022-07-29T06:13:59;23.50;65.60
4010;DHT22;2019;48.200;11.548;2022-07-29T06:16:25;23.60;65.50
4010;DHT22;2019;48.200;11.548;2022-07-29T06:18:51;23.60;65.20
4010;DHT22;2019;48.200;11.548;2022-07-29T06:21:17;23.60;64.50
4010;DHT22;2019;48.200;11.548;2022-07-29T06:23:44;23.60;64.20
4010;DHT22;2019;48.200;11.548;2022-07-29T06:26:10;23.60;64.20
4010;DHT22;2019;48.200;11.548;2022-07-29T06:28:36;23.70;64.10
4010;DHT22;2019;48.200;11.548;2022-07-29T06:31:01;23.70;64.00
4010;DHT22;2019;48.200;11.548;2022-07-29T06:33:27;23.80;64.10
4010;DHT22;2019;48.200;11.548;2022-07-29T06:35:52;23.80;63.90
4010;DHT22;2019;48.200;11.548;2022-07-29T06:38:18;23.90;63.60
4010;DHT22;2019;48.200;11.548;2022-07-29T06:40:45;23.90;63.30
4010;DHT22;2019;48.200;11.548;2022-07-29T06:43:36;23.90;63.20
4010;DHT22;2019;48.200;11.548;2022-07-29T06:46:09;24.00;63.10
4010;DHT22;2019;48.200;11.548;2022-07-29T06:48:35;24.00;62.90
4010;DHT22;2019;48.200;11.548;2022-07-29T06:51:02;24.10;62.80
4010;DHT22;2019;48.200;11.548;2022-07-29T06:53:28;24.10;62.60
4010;DHT22;2019;48.200;11.548;2022-07-29T06:55:54;24.10;62.30
4010;DHT22;2019;48.200;11.548;2022-07-29T06:58:20;24.20;62.30
4010;DHT22;2019;48.200;11.548;2022-07-29T07:00:47;24.20;62.20
4010;DHT22;2019;48.200;11.548;2022-07-29T07:03:13;24.20;62.40
4010;DHT22;2019;48.200;11.548;2022-07-29T07:05:39;24.20;62.60
4010;DHT22;2019;48.200;11.548;2022-07-29T07:08:05;24.30;62.60
4010;DHT22;2019;48.200;11.548;2022-07-29T07:10:31;24.30;62.40
4010;DHT22;2019;48.200;11.548;2022-07-29T07:12:57;24.40;62.10
4010;DHT22;2019;48.200;11.548;2022-07-29T07:15:23;24.40;61.60
4010;DHT22;2019;48.200;11.548;2022-07-29T07:17:49;24.50;61.30
4010;DHT22;2019;48.200;11.548;2022-07-29T07:20:15;24.50;61.30
4010;DHT22;2019;48.200;11.548;2022-07-29T07:22:41;24.60;61.20
4010;DHT22;2019;48.200;11.548;2022-07-29T07:25:07;24.60;60.80
4010;DHT22;2019;48.200;11.548;2022-07-29T07:27:33;24.70;60.60
4010;DHT22;2019;48.200;11.548;2022-07-29T07:29:58;24.70;60.40
4010;DHT22;2019;48.200;11.548;2022-07-29T07:32:24;24.80;60.40
4010;DHT22;2019;48.200;11.548;2022-07-29T07:34:50;24.90;60.40
4010;DHT22;2019;48.200;11.548;2022-07-29T07:37:16;25.00;60.30
4010;DHT22;2019;48.200;11.548;2022-07-29T07:39:42;25.00;59.80
4010;DHT22;2019;48.200;11.548;2022-07-29T07:42:07;25.10;59.60
4010;DHT22;2019;48.200;11.548;2022-07-29T07:44:35;25.20;59.60
4010;DHT22;2019;48.200;11.548;2022-07-29T07:47:01;25.30;59.40
4010;DHT22;2019;48.200;11.548;2022-07-29T07:49:26;25.30;58.70
4010;DHT22;2019;48.200;11.548;2022-07-29T07:51:52;25.40;58.40
4010;DHT22;2019;48.200;11.548;2022-07-29T07:54:18;25.50;57.60
4010;DHT22;2019;48.200;11.548;2022-07-29T07:56:43;25.50;56.80
4010;DHT22;2019;48.200;11.548;2022-07-29T07:59:09;25.60;56.80
4010;DHT22;2019;48.200;11.548;2022-07-29T08:01:34;25.70;56.80
4010;DHT22;2019;48.200;11.548;2022-07-29T08:04:00;25.70;56.40
4010;DHT22;2019;48.200;11.548;2022-07-29T08:06:25;25.80;56.40
4010;DHT22;2019;48.200;11.548;2022-07-29T08:08:51;25.90;56.10
4010;DHT22;2019;48.200;11.548;2022-07-29T08:11:17;26.10;56.20
4010;DHT22;2019;48.200;11.548;2022-07-29T08:13:42;26.20;55.70
4010;DHT22;2019;48.200;11.548;2022-07-29T08:16:08;26.30;55.60
4010;DHT22;2019;48.200;11.548;2022-07-29T08:18:38;26.40;55.20
4010;DHT22;2019;48.200;11.548;2022-07-29T08:21:05;26.40;54.60
4010;DHT22;2019;48.200;11.548;2022-07-29T08:23:30;26.50;54.40
4010;DHT22;2019;48.200;11.548;2022-07-29T08:26:12;26.50;54.20
4010;DHT22;2019;48.200;11.548;2022-07-29T08:28:38;26.50;54.10
4010;DHT22;2019;48.200;11.548;2022-07-29T08:31:04;26.60;54.00
4010;DHT22;2019;48.200;11.548;2022-07-29T08:33:30;26.60;53.90
4010;DHT22;2019;48.200;11.548;2022-07-29T08:35:56;26.70;54.10
4010;DHT22;2019;48.200;11.548;2022-07-29T08:38:22;26.80;53.90
4010;DHT22;2019;48.200;11.548;2022-07-29T08:40:47;26.90;53.80
4010;DHT22;2019;48.200;11.548;2022-07-29T08:43:13;27.00;53.50
4010;DHT22;2019;48.200;11.548;2022-07-29T08:45:47;27.10;53.70
4010;DHT22;2019;48.200;11.548;2022-07-29T08:48:23;27.20;53.60
4010;DHT22;2019;48.200;11.548;2022-07-29T08:50:55;27.30;53.40
4010;DHT22;2019;48.200;11.548;2022-07-29T08:53:21;27.40;52.90
4010;DHT22;2019;48.200;11.548;2022-07-29T08:55:50;27.50;52.90
4010;DHT22;2019;48.200;11.548;2022-07-29T08:58:16;27.60;52.90
4010;DHT22;2019;48.200;11.548;2022-07-29T09:00:45;27.60;52.90
4010;DHT22;2019;48.200;11.548;2022-07-29T09:03:18;27.60;52.70
4010;DHT22;2019;48.200;11.548;2022-07-29T09:05:45;27.70;52.70
4010;DHT22;2019;48.200;11.548;2022-07-29T09:08:12;27.70;52.80
4010;DHT22;2019;48.200;11.548;2022-07-29T09:10:39;27.80;52.40
4010;DHT22;2019;48.200;11.548;2022-07-29T09:13:04;27.90;52.20
4010;DHT22;2019;48.200;11.548;2022-07-29T09:15:30;28.00;52.20
4010;DHT22;2019;48.200;11.548;2022-07-29T09:17:56;28.10;51.80
4010;DHT22;2019;48.200;11.548;2022-07-29T09:20:24;28.20;51.90
4010;DHT22;2019;48.200;11.548;2022-07-29T09:22:50;28.20;51.70
4010;DHT22;2019;48.200;11.548;2022-07-29T09:25:35;28.20;51.40
4010;DHT22;2019;48.200;11.548;2022-07-29T09:28:12;28.30;51.60
4010;DHT22;2019;48.200;11.548;2022-07-29T09:30:55;28.30;51.10
4010;DHT22;2019;48.200;11.548;2022-07-29T09:33:22;28.40;51.00
4010;DHT22;2019;48.200;11.548;2022-07-29T09:38:30;28.50;50.70
4010;DHT22;2019;48.200;11.548;2022-07-29T09:40:58;28.50;51.00
4010;DHT22;2019;48.200;11.548;2022-07-29T09:43:24;28.50;50.80
4010;DHT22;2019;48.200;11.548;2022-07-29T09:45:49;28.60;51.00
4010;DHT22;2019;48.200;11.548;2022-07-29T09:48:23;28.60;50.80
4010;DHT22;2019;48.200;11.548;2022-07-29T09:50:49;28.70;50.70
4010;DHT22;2019;48.200;11.548;2022-07-29T09:53:36;28.60;50.60
4010;DHT22;2019;48.200;11.548;2022-07-29T09:56:03;28.60;50.50
4010;DHT22;2019;48.200;11.548;2022-07-29T09:58:29;28.60;50.50
4010;DHT22;2019;48.200;11.548;2022-07-29T10:00:56;28.50;50.30
4010;DHT22;2019;48.200;11.548;2022-07-29T10:03:22;28.50;50.50
4010;DHT22;2019;48.200;11.548;2022-07-29T10:06:11;28.50;50.50
4010;DHT22;2019;48.200;11.548;2022-07-29T10:08:38;28.50;50.50
4010;DHT22;2019;48.200;11.548;2022-07-29T10:11:14;28.40;50.50
4010;DHT22;2019;48.200;11.548;2022-07-29T10:13:41;28.50;50.20
4010;DHT22;2019;48.200;11.548;2022-07-29T10:16:07;28.40;50.50
4010;DHT22;2019;48.200;11.548;2022-07-29T10:18:34;28.40;50.40
4010;DHT22;2019;48.200;11.548;2022-07-29T10:21:00;28.40;50.80
4010;DHT22;2019;48.200;11.548;2022-07-29T10:23:29;28.50;50.80
4010;DHT22;2019;48.200;11.548;2022-07-29T10:25:55;28.50;51.00
4010;DHT22;2019;48.200;11.548;2022-07-29T10:28:21;28.60;51.20
4010;DHT22;2019;48.200;11.548;2022-07-29T10:30:49;28.70;51.20
4010;DHT22;2019;48.200;11.548;2022-07-29T10:34:03;28.80;50.70
4010;DHT22;2019;48.200;11.548;2022-07-29T10:36:51;28.80;50.30
4010;DHT22;2019;48.200;11.548;2022-07-29T10:44:39;28.80;50.20
4010;DHT22;2019;48.200;11.548;2022-07-29T10:47:05;28.80;50.40
4010;DHT22;2019;48.200;11.548;2022-07-29T10:49:31;28.80;50.90
4010;DHT22;2019;48.200;11.548;2022-07-29T10:52:04;29.00;50.90
4010;DHT22;2019;48.200;11.548;2022-07-29T10:57:21;29.30;50.00
4010;DHT22;2019;48.200;11.548;2022-07-29T11:05:07;29.60;49.70
4010;DHT22;2019;48.200;11.548;2022-07-29T11:07:35;29.70;48.80
4010;DHT22;2019;48.200;11.548;2022-07-29T11:18:03;29.90;48.10
4010;DHT22;2019;48.200;11.548;2022-07-29T11:20:46;30.00;47.80
4010;DHT22;2019;48.200;11.548;2022-07-29T11:23:23;30.20;47.60
4010;DHT22;2019;48.200;11.548;2022-07-29T11:28:51;30.40;46.20
4010;DHT22;2019;48.200;11.548;2022-07-29T11:31:38;30.30;46.40
4010;DHT22;2019;48.200;11.548;2022-07-29T11:34:25;30.40;45.10
4010;DHT22;2019;48.200;11.548;2022-07-29T11:47:32;30.60;45.10
4010;DHT22;2019;48.200;11.548;2022-07-29T11:50:01;30.80;45.00
4010;DHT22;2019;48.200;11.548;2022-07-29T11:52:35;30.80;44.60
4010;DHT22;2019;48.200;11.548;2022-07-29T11:55:04;30.80;43.20
4010;DHT22;2019;48.200;11.548;2022-07-29T11:57:30;30.70;41.90
4010;DHT22;2019;48.200;11.548;2022-07-29T11:59:57;30.70;41.30
4010;DHT22;2019;48.200;11.548;2022-07-29T12:02:23;30.70;40.70
4010;DHT22;2019;48.200;11.548;2022-07-29T12:04:52;30.60;40.20
4010;DHT22;2019;48.200;11.548;2022-07-29T12:07:29;30.60;40.50
4010;DHT22;2019;48.200;11.548;2022-07-29T12:09:56;30.50;40.70
4010;DHT22;2019;48.200;11.548;2022-07-29T12:12:21;30.40;41.30
4010;DHT22;2019;48.200;11.548;2022-07-29T12:14:47;30.40;41.80
4010;DHT22;2019;48.200;11.548;2022-07-29T12:17:31;30.40;41.70
4010;DHT22;2019;48.200;11.548;2022-07-29T12:19:58;30.40;41.80
4010;DHT22;2019;48.200;11.548;2022-07-29T12:22:30;30.30;42.00
4010;DHT22;2019;48.200;11.548;2022-07-29T12:25:01;30.30;41.80
4010;DHT22;2019;48.200;11.548;2022-07-29T12:27:27;30.30;42.20
4010;DHT22;2019;48.200;11.548;2022-07-29T12:30:01;30.20;42.60
4010;DHT22;2019;48.200;11.548;2022-07-29T12:32:35;30.30;43.00
4010;DHT22;2019;48.200;11.548;2022-07-29T12:35:09;30.30;43.30
4010;DHT22;2019;48.200;11.548;2022-07-29T12:37:36;30.30;43.80
4010;DHT22;2019;48.200;11.548;2022-07-29T12:40:07;30.30;43.50
4010;DHT22;2019;48.200;11.548;2022-07-29T12:42:33;30.30;43.10
4010;DHT22;2019;48.200;11.548;2022-07-29T12:45:00;30.30;42.80
4010;DHT22;2019;48.200;11.548;2022-07-29T12:47:26;30.40;42.80
4010;DHT22;2019;48.200;11.548;2022-07-29T12:50:11;30.30;43.10
4010;DHT22;2019;48.200;11.548;2022-07-29T12:52:37;30.30;43.00
4010;DHT22;2019;48.200;11.548;2022-07-29T12:55:04;30.20;42.80
4010;DHT22;2019;48.200;11.548;2022-07-29T12:57:30;30.10;42.40
4010;DHT22;2019;48.200;11.548;2022-07-29T13:02:28;29.90;42.50
4010;DHT22;2019;48.200;11.548;2022-07-29T13:04:58;29.80;42.30
4010;DHT22;2019;48.200;11.548;2022-07-29T13:07:26;29.70;42.20
4010;DHT22;2019;48.200;11.548;2022-07-29T13:09:52;29.60;42.10
4010;DHT22;2019;48.200;11.548;2022-07-29T13:12:18;29.50;42.20
4010;DHT22;2019;48.200;11.548;2022-07-29T13:14:48;29.40;42.30
4010;DHT22;2019;48.200;11.548;2022-07-29T13:17:19;29.30;42.30
4010;DHT22;2019;48.200;11.548;2022-07-29T13:19:53;29.20;42.70
4010;DHT22;2019;48.200;11.548;2022-07-29T13:22:21;29.10;43.10
4010;DHT22;2019;48.200;11.548;2022-07-29T13:24:55;29.00;43.40
4010;DHT22;2019;48.200;11.548;2022-07-29T13:27:25;28.90;43.70
4010;DHT22;2019;48.200;11.548;2022-07-29T13:29:52;28.80;43.80
4010;DHT22;2019;48.200;11.548;2022-07-29T13:32:19;28.70;44.10
4010;DHT22;2019;48.200;11.548;2022-07-29T13:34:45;28.70;44.50
4010;DHT22;2019;48.200;11.548;2022-07-29T13:37:11;28.60;44.70
4010;DHT22;2019;48.200;11.548;2022-07-29T13:39:37;28.60;44.90
4010;DHT22;2019;48.200;11.548;2022-07-29T13:42:04;28.50;46.00
4010;DHT22;2019;48.200;11.548;2022-07-29T13:44:30;28.50;46.40
4010;DHT22;2019;48.200;11.548;2022-07-29T13:46:55;28.40;46.00
4010;DHT22;2019;48.200;11.548;2022-07-29T13:49:21;28.40;46.30
4010;DHT22;2019;48.200;11.548;2022-07-29T13:51:48;28.40;46.30
4010;DHT22;2019;48.200;11.548;2022-07-29T13:54:14;28.40;46.50
4010;DHT22;2019;48.200;11.548;2022-07-29T13:56:39;28.40;46.50
4010;DHT22;2019;48.200;11.548;2022-07-29T13:59:05;28.50;46.30
4010;DHT22;2019;48.200;11.548;2022-07-29T14:01:31;28.50;45.90
4010;DHT22;2019;48.200;11.548;2022-07-29T14:03:56;28.50;46.00
4010;DHT22;2019;48.200;11.548;2022-07-29T14:06:22;28.50;46.10
4010;DHT22;2019;48.200;11.548;2022-07-29T14:08:47;28.50;45.90
4010;DHT22;2019;48.200;11.548;2022-07-29T14:11:13;28.50;45.70
4010;DHT22;2019;48.200;11.548;2022-07-29T14:13:39;28.50;45.80
4010;DHT22;2019;48.200;11.548;2022-07-29T14:16:04;28.50;45.70
4010;DHT22;2019;48.200;11.548;2022-07-29T14:18:30;28.50;45.50
4010;DHT22;2019;48.200;11.548;2022-07-29T14:20:56;28.50;45.40
4010;DHT22;2019;48.200;11.548;2022-07-29T14:23:22;28.50;45.20
4010;DHT22;2019;48.200;11.548;2022-07-29T14:25:47;28.50;45.10
4010;DHT22;2019;48.200;11.548;2022-07-29T14:28:13;28.40;45.20
4010;DHT22;2019;48.200;11.548;2022-07-29T14:30:38;28.50;45.40
4010;DHT22;2019;48.200;11.548;2022-07-29T14:33:04;28.50;45.80
4010;DHT22;2019;48.200;11.548;2022-07-29T14:35:30;28.50;45.60
4010;DHT22;2019;48.200;11.548;2022-07-29T14:37:56;28.50;45.70
4010;DHT22;2019;48.200;11.548;2022-07-29T14:40:22;28.50;45.60
4010;DHT22;2019;48.200;11.548;2022-07-29T14:42:48;28.50;45.80
4010;DHT22;2019;48.200;11.548;2022-07-29T14:45:14;28.40;46.10
4010;DHT22;2019;48.200;11.548;2022-07-29T14:47:40;28.40;46.40
4010;DHT22;2019;48.200;11.548;2022-07-29T14:50:07;28.40;46.50
4010;DHT22;2019;48.200;11.548;2022-07-29T14:52:33;28.40;46.40
4010;DHT22;2019;48.200;11.548;2022-07-29T14:54:58;28.40;46.50
4010;DHT22;2019;48.200;11.548;2022-07-29T14:57:24;28.30;46.70
4010;DHT22;2019;48.200;11.548;2022-07-29T14:59:50;28.30;46.70
4010;DHT22;2019;48.200;11.548;2022-07-29T15:02:16;28.20;46.70
4010;DHT22;2019;48.200;11.548;2022-07-29T15:04:42;28.20;46.80
4010;DHT22;2019;48.200;11.548;2022-07-29T15:07:07;28.10;46.90
4010;DHT22;2019;48.200;11.548;2022-07-29T15:09:33;28.10;47.10
4010;DHT22;2019;48.200;11.548;2022-07-29T15:11:59;28.10;47.50
4010;DHT22;2019;48.200;11.548;2022-07-29T15:14:24;28.00;47.60
4010;DHT22;2019;48.200;11.548;2022-07-29T15:16:50;28.00;47.70
4010;DHT22;2019;48.200;11.548;2022-07-29T15:19:15;27.90;47.80
4010;DHT22;2019;48.200;11.548;2022-07-29T15:21:41;27.90;48.10
4010;DHT22;2019;48.200;11.548;2022-07-29T15:24:07;27.90;48.50
4010;DHT22;2019;48.200;11.548;2022-07-29T15:26:33;27.80;48.80
4010;DHT22;2019;48.200;11.548;2022-07-29T15:28:59;27.70;49.30
4010;DHT22;2019;48.200;11.548;2022-07-29T15:31:25;27.70;49.80
4010;DHT22;2019;48.200;11.548;2022-07-29T15:33:50;27.60;50.40
4010;DHT22;2019;48.200;11.548;2022-07-29T15:36:16;27.60;50.90
4010;DHT22;2019;48.200;11.548;2022-07-29T15:38:42;27.60;51.20
4010;DHT22;2019;48.200;11.548;2022-07-29T15:41:09;27.50;51.50
4010;DHT22;2019;48.200;11.548;2022-07-29T15:43:35;27.50;51.90
4010;DHT22;2019;48.200;11.548;2022-07-29T15:46:00;27.40;52.30
4010;DHT22;2019;48.200;11.548;2022-07-29T15:48:45;27.40;52.60
4010;DHT22;2019;48.200;11.548;2022-07-29T15:51:11;27.40;52.80
4010;DHT22;2019;48.200;11.548;2022-07-29T15:53:37;27.40;53.10
4010;DHT22;2019;48.200;11.548;2022-07-29T15:56:03;27.30;53.20
4010;DHT22;2019;48.200;11.548;2022-07-29T15:58:29;27.40;53.30
4010;DHT22;2019;48.200;11.548;2022-07-29T16:00:54;27.30;53.20
4010;DHT22;2019;48.200;11.548;2022-07-29T16:03:20;27.30;53.10
4010;DHT22;2019;48.200;11.548;2022-07-29T16:05:47;27.20;53.10
4010;DHT22;2019;48.200;11.548;2022-07-29T16:08:12;27.20;53.10
4010;DHT22;2019;48.200;11.548;2022-07-29T16:10:38;27.20;53.20
4010;DHT22;2019;48.200;11.548;2022-07-29T16:13:04;27.20;53.30
4010;DHT22;2019;48.200;11.548;2022-07-29T16:15:29;27.10;53.30
4010;DHT22;2019;48.200;11.548;2022-07-29T16:17:55;27.10;53.50
4010;DHT22;2019;48.200;11.548;2022-07-29T16:20:20;27.10;53.60
4010;DHT22;2019;48.200;11.548;2022-07-29T16:22:46;27.10;53.60
4010;DHT22;2019;48.200;11.548;2022-07-29T16:25:12;27.00;53.60
4010;DHT22;2019;48.200;11.548;2022-07-29T16:27:38;27.00;53.80
4010;DHT22;2019;48.200;11.548;2022-07-29T16:30:05;26.90;53.80
4010;DHT22;2019;48.200;11.548;2022-07-29T16:32:31;26.90;53.90
4010;DHT22;2019;48.200;11.548;2022-07-29T16:34:56;26.90;54.00
4010;DHT22;2019;48.200;11.548;2022-07-29T16:37:22;26.90;54.00
4010;DHT22;2019;48.200;11.548;2022-07-29T16:39:48;26.90;54.20
4010;DHT22;2019;48.200;11.548;2022-07-29T16:42:14;26.80;54.20
4010;DHT22;2019;48.200;11.548;2022-07-29T16:44:39;26.80;54.40
4010;DHT22;2019;48.200;11.548;2022-07-29T16:47:05;26.80;54.60